Time;durP1;ratioP1;P1;durP2;ratioP2;P2;SDS_P1;SDS_P2;PMS_P1;PMS_P2;Temp;Humidity;BMP_temperature;BMP_pressure;BME280_temperature;BME280_humidity;BME280_pressure;Samples;Min_cycle;Max_cycle;Signal;HPM_P1;HPM_P2
2021/05/29 00:00:51;;;;;;;10.45;5.18;;;;;;;19.42;100.00;100931.22;4919068;29;20031;-76
2021/05/29 00:03:36;;;;;;;9.93;5.85;;;;;;;19.57;100.00;100927.75;4907152;29;20056;-77
2021/05/29 00:06:22;;;;;;;10.02;5.50;;;;;;;19.33;100.00;100936.97;4923746;29;20040;-76
2021/05/29 00:09:08;;;;;;;12.18;5.85;;;;;;;19.13;100.00;100940.56;4928613;29;20028;-75
2021/05/29 00:11:54;;;;;;;10.23;7.40;;;;;;;18.99;100.00;100940.41;4922911;29;20043;-77
2021/05/29 00:14:41;;;;;;;10.70;7.95;;;;;;;19.14;100.00;100942.28;4919738;29;20028;-76
2021/05/29 00:17:27;;;;;;;9.93;8.07;;;;;;;18.46;100.00;100939.41;4919014;29;20114;-77
2021/05/29 00:20:13;;;;;;;9.88;7.45;;;;;;;18.34;100.00;100950.59;4905322;29;20047;-77
2021/05/29 00:22:59;;;;;;;9.68;8.30;;;;;;;18.63;100.00;100946.59;4918736;29;20415;-77
2021/05/29 00:25:45;;;;;;;10.73;8.18;;;;;;;18.43;100.00;100944.84;4917556;29;20043;-78
2021/05/29 00:28:31;;;;;;;11.95;8.02;;;;;;;18.16;100.00;100945.19;4918025;29;20048;-77
2021/05/29 00:31:18;;;;;;;12.40;8.32;;;;;;;18.06;100.00;100951.84;4917863;29;20032;-77
2021/05/29 00:34:03;;;;;;;11.00;8.23;;;;;;;18.89;100.00;100949.72;4917267;29;20051;-77
2021/05/29 00:36:49;;;;;;;10.48;9.10;;;;;;;18.70;100.00;100934.75;4907174;29;20032;-77
2021/05/29 00:39:35;;;;;;;13.98;8.95;;;;;;;18.90;100.00;100934.66;4921487;29;20031;-77
2021/05/29 00:42:21;;;;;;;11.05;8.73;;;;;;;18.67;100.00;100937.53;4921404;29;20399;-77
2021/05/29 00:45:07;;;;;;;8.27;7.57;;;;;;;18.24;100.00;100938.63;4908081;29;20063;-77
2021/05/29 00:47:55;;;;;;;12.00;9.02;;;;;;;18.45;100.00;100944.78;4921233;29;20107;-77
2021/05/29 00:50:48;;;;;;;15.95;8.88;;;;;;;17.99;100.00;100958.34;4920552;29;20415;-77
2021/05/29 00:53:35;;;;;;;9.75;8.02;;;;;;;18.45;100.00;100947.44;4920699;29;20054;-77
2021/05/29 00:56:24;;;;;;;10.43;8.35;;;;;;;18.49;100.00;100944.56;4906641;29;20028;-77
2021/05/29 00:59:10;;;;;;;10.05;8.73;;;;;;;18.47;100.00;100946.44;4920620;29;20031;-77
2021/05/29 01:01:56;;;;;;;13.65;8.60;;;;;;;17.98;100.00;100946.91;4920520;29;20032;-77
2021/05/29 01:04:45;;;;;;;11.60;8.18;;;;;;;17.89;100.00;100947.28;4920992;29;20132;-77
2021/05/29 01:07:31;;;;;;;13.15;8.15;;;;;;;17.84;100.00;100956.38;4906694;29;20322;-76
2021/05/29 01:10:18;;;;;;;9.70;8.70;;;;;;;18.37;100.00;100961.03;4920809;29;20032;-77
2021/05/29 01:13:06;;;;;;;13.93;8.38;;;;;;;18.14;100.00;100969.16;4919518;29;20127;-77
2021/05/29 01:15:55;;;;;;;12.20;7.90;;;;;;;18.00;100.00;100958.28;4920174;29;20052;-77
2021/05/29 01:18:41;;;;;;;15.98;7.80;;;;;;;17.79;100.00;100961.88;4920244;29;20032;-77
2021/05/29 01:21:26;;;;;;;11.43;7.65;;;;;;;17.54;100.00;100960.31;4919497;29;20032;-77
2021/05/29 01:24:12;;;;;;;11.20;8.02;;;;;;;18.30;100.00;100951.63;4906864;29;20040;-77
2021/05/29 01:26:58;;;;;;;11.50;8.00;;;;;;;17.76;100.00;100953.22;4920048;29;20422;-77
2021/05/29 01:29:45;;;;;;;10.90;8.00;;;;;;;17.80;100.00;100947.69;4919250;29;20439;-77
2021/05/29 01:32:34;;;;;;;10.68;7.90;;;;;;;18.31;100.00;100953.34;4919862;29;20057;-77
2021/05/29 01:35:20;;;;;;;9.18;7.78;;;;;;;18.24;100.00;100954.53;4906328;29;20110;-76
2021/05/29 01:38:05;;;;;;;12.07;8.68;;;;;;;18.49;100.00;100949.88;4919918;29;20068;-77
2021/05/29 01:40:52;;;;;;;11.93;8.48;;;;;;;18.63;100.00;100946.59;4920411;29;20103;-77
2021/05/29 01:43:40;;;;;;;13.07;7.80;;;;;;;17.32;100.00;100947.06;4919171;29;20024;-77
2021/05/29 01:46:25;;;;;;;14.80;8.02;;;;;;;17.72;100.00;100963.06;4919364;29;20031;-77
2021/05/29 01:49:11;;;;;;;11.80;8.10;;;;;;;17.78;100.00;100959.28;4919767;29;20035;-78
2021/05/29 01:51:57;;;;;;;14.15;7.80;;;;;;;18.03;100.00;100966.09;4919776;29;20060;-77
2021/05/29 01:54:43;;;;;;;11.25;7.47;;;;;;;18.12;100.00;100962.16;4918542;29;20028;-77
2021/05/29 01:57:28;;;;;;;11.57;7.40;;;;;;;17.86;100.00;100957.16;4907372;29;20032;-77
2021/05/29 02:00:15;;;;;;;11.50;8.18;;;;;;;17.84;100.00;100953.75;4919617;29;20084;-77
2021/05/29 02:03:01;;;;;;;13.93;7.50;;;;;;;17.89;100.00;100959.69;4919202;29;20063;-78
2021/05/29 02:05:47;;;;;;;11.88;8.35;;;;;;;18.03;100.00;100959.94;4919813;29;20454;-77
2021/05/29 02:08:33;;;;;;;10.05;7.47;;;;;;;18.26;100.00;100959.78;4905904;29;20036;-77
2021/05/29 02:11:19;;;;;;;10.65;7.60;;;;;;;18.31;100.00;100965.72;4920175;29;20036;-78
2021/05/29 02:14:04;;;;;;;11.60;7.85;;;;;;;17.95;100.00;100967.38;4918007;29;20107;-78
2021/05/29 02:16:50;;;;;;;12.02;9.15;;;;;;;18.06;100.00;100973.06;4919772;29;20028;-78
2021/05/29 02:19:36;;;;;;;12.77;8.40;;;;;;;18.23;100.00;100975.81;4918145;29;20137;-77
2021/05/29 02:22:22;;;;;;;9.57;8.38;;;;;;;17.95;100.00;100968.25;4905318;29;20043;-77
2021/05/29 02:25:09;;;;;;;10.48;7.80;;;;;;;18.00;100.00;100982.16;4919245;29;20028;-77
2021/05/29 02:27:55;;;;;;;17.25;8.52;;;;;;;18.14;100.00;100976.25;4919033;29;20038;-76
2021/05/29 02:30:41;;;;;;;10.80;8.02;;;;;;;18.17;100.00;100979.59;4919660;29;20024;-76
2021/05/29 02:33:28;;;;;;;12.30;8.35;;;;;;;17.87;100.00;100986.25;4918606;29;20028;-77
2021/05/29 02:36:14;;;;;;;11.20;8.02;;;;;;;18.06;100.00;100976.59;4919148;29;20063;-76
2021/05/29 02:38:59;;;;;;;10.65;7.70;;;;;;;17.91;100.00;100976.38;4904908;29;20102;-77
2021/05/29 02:41:45;;;;;;;13.65;7.68;;;;;;;17.64;100.00;100986.38;4905573;29;20110;-76
2021/05/29 02:44:31;;;;;;;14.20;8.30;;;;;;;17.86;100.00;100992.50;4905041;29;20063;-77
2021/05/29 02:47:17;;;;;;;11.35;7.90;;;;;;;18.11;100.00;100984.31;4919139;29;20030;-76
2021/05/29 02:50:04;;;;;;;11.20;8.20;;;;;;;17.08;100.00;100985.13;4918511;29;20068;-76
2021/05/29 02:52:50;;;;;;;11.43;8.07;;;;;;;17.39;100.00;100995.34;4918709;29;20064;-76
2021/05/29 02:55:38;;;;;;;12.10;8.95;;;;;;;17.99;100.00;100995.47;4904775;29;20063;-76
2021/05/29 02:58:24;;;;;;;10.55;8.02;;;;;;;18.13;100.00;100985.13;4904085;29;20024;-76
2021/05/29 03:01:09;;;;;;;12.40;9.18;;;;;;;17.95;100.00;100984.16;4919132;29;20024;-77
2021/05/29 03:03:55;;;;;;;9.40;8.43;;;;;;;18.29;100.00;100983.53;4905341;29;20051;-77
2021/05/29 03:06:41;;;;;;;14.52;9.18;;;;;;;18.16;100.00;100984.97;4918348;29;20110;-76
2021/05/29 03:09:27;;;;;;;14.00;11.27;;;;;;;17.46;100.00;100996.88;4918192;29;20480;-77
2021/05/29 03:12:13;;;;;;;15.32;10.73;;;;;;;18.01;100.00;100996.28;4918128;29;20035;-76
2021/05/29 03:14:59;;;;;;;13.77;9.88;;;;;;;17.74;100.00;100997.44;4917342;29;20513;-76
2021/05/29 03:17:46;;;;;;;15.55;8.48;;;;;;;17.93;100.00;101003.69;4917470;29;20063;-76
2021/05/29 03:20:33;;;;;;;14.23;8.80;;;;;;;18.14;100.00;101011.59;4918259;29;20028;-76
2021/05/29 03:23:18;;;;;;;11.50;7.80;;;;;;;18.27;100.00;101002.16;4918258;29;20063;-76
2021/05/29 03:26:04;;;;;;;11.98;7.70;;;;;;;18.37;100.00;101002.66;4917202;29;20521;-76
2021/05/29 03:28:51;;;;;;;11.32;7.50;;;;;;;18.60;100.00;101005.97;4918073;29;20043;-77
2021/05/29 03:31:36;;;;;;;11.23;7.28;;;;;;;18.66;100.00;101012.81;4904281;29;20036;-77
2021/05/29 03:34:22;;;;;;;15.73;8.40;;;;;;;18.67;100.00;101010.09;4905555;29;20032;-77
2021/05/29 03:37:09;;;;;;;11.20;8.30;;;;;;;18.35;100.00;101012.44;4905342;29;20059;-76
2021/05/29 03:39:55;;;;;;;11.13;6.93;;;;;;;18.43;100.00;101031.53;4904460;29;20063;-77
2021/05/29 03:42:41;;;;;;;11.70;7.43;;;;;;;17.94;100.00;101030.16;4918052;29;20457;-76
2021/05/29 03:45:27;;;;;;;11.27;7.68;;;;;;;18.07;100.00;101041.06;4917557;29;20484;-76
2021/05/29 03:48:13;;;;;;;12.70;7.57;;;;;;;17.92;100.00;101039.94;4918986;29;20031;-76
2021/05/29 03:51:00;;;;;;;9.82;7.03;;;;;;;17.90;100.00;101036.50;4917963;29;20032;-77
2021/05/29 03:53:46;;;;;;;8.23;7.40;;;;;;;17.25;100.00;101024.19;4918215;29;20039;-76
2021/05/29 03:56:32;;;;;;;13.65;8.00;;;;;;;17.80;100.00;101034.31;4916973;29;20090;-76
2021/05/29 03:59:18;;;;;;;9.68;7.82;;;;;;;17.75;100.00;101029.19;4917364;29;20027;-76
2021/05/29 04:02:03;;;;;;;13.07;8.18;;;;;;;17.75;100.00;101037.16;4917783;29;20036;-76
2021/05/29 04:04:49;;;;;;;14.18;7.88;;;;;;;17.91;100.00;101040.00;4917579;29;20383;-76
2021/05/29 04:07:35;;;;;;;10.85;8.50;;;;;;;17.87;100.00;101049.00;4917965;29;20028;-77
2021/05/29 04:10:24;;;;;;;11.10;7.93;;;;;;;17.56;100.00;101052.06;4921963;29;20482;-77
2021/05/29 04:13:09;;;;;;;10.95;7.88;;;;;;;17.65;100.00;101056.13;4921376;29;20039;-77
2021/05/29 04:15:55;;;;;;;12.90;9.02;;;;;;;17.82;100.00;101043.91;4921668;29;20123;-76
2021/05/29 04:18:41;;;;;;;9.63;8.73;;;;;;;18.13;100.00;101046.13;4920727;29;20016;-77
2021/05/29 04:21:27;;;;;;;13.60;7.68;;;;;;;17.56;100.00;101041.47;4907485;29;20483;-77
2021/05/29 04:24:13;;;;;;;9.85;7.50;;;;;;;17.51;100.00;101053.16;4907255;29;20454;-76
2021/05/29 04:26:59;;;;;;;8.85;7.82;;;;;;;17.50;100.00;101051.47;4921273;29;20028;-76
2021/05/29 04:29:45;;;;;;;11.93;8.10;;;;;;;17.77;100.00;101053.00;4921217;29;20032;-77
2021/05/29 04:32:33;;;;;;;14.35;8.32;;;;;;;17.33;100.00;101067.97;4907159;29;20028;-77
2021/05/29 04:35:19;;;;;;;9.15;8.15;;;;;;;17.44;100.00;101064.97;4924341;29;20398;-76
2021/05/29 04:38:05;;;;;;;10.90;8.00;;;;;;;17.26;100.00;101073.59;4940255;29;20048;-76
2021/05/29 04:40:51;;;;;;;9.35;8.15;;;;;;;16.83;100.00;101078.78;4941456;29;20463;-76
2021/05/29 04:43:37;;;;;;;11.73;8.45;;;;;;;17.12;100.00;101075.91;4933541;29;20107;-78
2021/05/29 04:46:23;;;;;;;9.35;8.40;;;;;;;17.36;100.00;101081.09;4918403;29;20050;-75
2021/05/29 04:49:08;;;;;;;11.70;8.90;;;;;;;17.68;100.00;101080.72;4928135;29;20029;-75
2021/05/29 04:51:55;;;;;;;11.68;9.93;;;;;;;17.89;100.00;101073.69;4929615;29;20036;-75
2021/05/29 04:54:41;;;;;;;11.20;9.60;;;;;;;17.93;100.00;101075.28;4922801;29;20122;-76
2021/05/29 04:57:26;;;;;;;12.48;10.43;;;;;;;17.13;100.00;101082.94;4922422;29;20295;-77
2021/05/29 05:00:15;;;;;;;16.05;11.05;;;;;;;17.42;100.00;101075.63;4921263;29;20361;-77
2021/05/29 05:03:01;;;;;;;11.88;10.63;;;;;;;16.94;100.00;101076.59;4920379;29;20430;-76
2021/05/29 05:05:47;;;;;;;12.30;10.85;;;;;;;16.57;100.00;101077.13;4919681;29;20066;-77
2021/05/29 05:08:33;;;;;;;11.90;10.45;;;;;;;17.15;100.00;101081.94;4920134;29;20064;-76
2021/05/29 05:11:20;;;;;;;12.00;9.70;;;;;;;17.41;100.00;101081.81;4919218;29;20098;-77
2021/05/29 05:14:06;;;;;;;14.80;10.43;;;;;;;17.00;100.00;101081.69;4919549;29;20032;-77
2021/05/29 05:16:52;;;;;;;10.88;8.68;;;;;;;17.04;100.00;101078.84;4919353;29;20032;-77
2021/05/29 05:19:37;;;;;;;12.25;8.55;;;;;;;17.74;100.00;101071.66;4919919;29;20106;-77
2021/05/29 05:22:23;;;;;;;14.27;9.18;;;;;;;18.22;100.00;101070.47;4920174;29;20059;-76
2021/05/29 05:25:10;;;;;;;9.50;7.97;;;;;;;18.49;100.00;101060.47;4919735;29;20058;-77
2021/05/29 05:27:55;;;;;;;12.60;8.00;;;;;;;17.95;100.00;101068.09;4920185;29;20094;-78
2021/05/29 05:30:42;;;;;;;10.73;7.90;;;;;;;17.47;100.00;101063.03;4920257;29;20032;-77
2021/05/29 05:33:28;;;;;;;10.35;8.05;;;;;;;18.32;100.00;101073.56;4920673;29;20059;-77
2021/05/29 05:36:14;;;;;;;10.82;8.10;;;;;;;18.00;100.00;101068.78;4907259;29;20098;-78
2021/05/29 05:39:00;;;;;;;10.13;8.60;;;;;;;17.46;100.00;101073.69;4905871;29;20052;-76
2021/05/29 05:41:46;;;;;;;8.48;6.85;;;;;;;17.85;100.00;101072.94;4920069;29;20072;-77
2021/05/29 05:44:32;;;;;;;11.07;7.05;;;;;;;18.63;100.00;101073.97;4919654;29;20473;-77
2021/05/29 05:47:18;;;;;;;7.95;6.90;;;;;;;18.53;100.00;101072.69;4919359;29;20031;-76
2021/05/29 05:50:05;;;;;;;11.15;7.00;;;;;;;18.37;100.00;101077.78;4919581;29;20072;-76
2021/05/29 05:52:51;;;;;;;7.78;6.43;;;;;;;19.11;100.00;101079.72;4919671;29;20035;-77
2021/05/29 05:55:37;;;;;;;7.00;6.30;;;;;;;19.12;100.00;101078.78;4906426;29;20135;-77
2021/05/29 05:58:23;;;;;;;8.40;5.80;;;;;;;20.10;100.00;101074.88;4918979;29;20032;-77
2021/05/29 06:01:09;;;;;;;5.78;5.22;;;;;;;19.53;100.00;101080.34;4894437;29;20079;-77
2021/05/29 06:03:55;;;;;;;6.03;5.40;;;;;;;19.71;100.00;101078.59;4919428;29;20389;-76
2021/05/29 06:06:40;;;;;;;6.80;6.15;;;;;;;19.84;100.00;101085.06;4918321;29;20458;-76
2021/05/29 06:09:28;;;;;;;7.68;4.88;;;;;;;20.31;100.00;101091.50;4920087;29;20067;-76
2021/05/29 06:12:14;;;;;;;8.10;4.82;;;;;;;20.06;100.00;101091.88;4918909;29;20453;-77
2021/05/29 06:21:13;;;;;;;6.82;5.25;;;;;;;19.69;100.00;101088.47;4913330;29;20118;-77
2021/05/29 06:23:59;;;;;;;6.03;4.82;;;;;;;19.93;100.00;101093.41;4919741;29;20038;-76
2021/05/29 06:26:45;;;;;;;6.68;5.40;;;;;;;19.75;100.00;101094.34;4905457;29;20028;-76
2021/05/29 06:29:31;;;;;;;8.77;5.50;;;;;;;19.17;100.00;101090.06;4919323;29;20505;-77
2021/05/29 06:32:17;;;;;;;9.45;5.90;;;;;;;18.94;100.00;101092.91;4919025;29;20036;-77
2021/05/29 06:35:04;;;;;;;10.73;5.80;;;;;;;19.91;100.00;101087.31;4919569;29;20050;-76
2021/05/29 06:37:49;;;;;;;7.57;5.63;;;;;;;19.83;100.00;101081.53;4918857;29;20477;-77
2021/05/29 06:40:36;;;;;;;10.07;5.30;;;;;;;19.33;100.00;101076.94;4919506;29;20032;-76
2021/05/29 06:43:21;;;;;;;11.38;5.47;;;;;;;20.47;100.00;101076.47;4918729;29;20126;-76
2021/05/29 06:46:07;;;;;;;7.45;5.78;;;;;;;20.27;100.00;101079.31;4904897;29;20467;-76
2021/05/29 06:48:55;;;;;;;10.07;6.53;;;;;;;20.83;100.00;101077.19;4904712;29;20126;-76
2021/05/29 06:52:01;;;;;;;11.35;6.97;;;;;;;20.61;100.00;101077.47;4918562;29;20110;-76
2021/05/29 06:55:04;;;;;;;8.63;5.95;;;;;;;21.07;100.00;101081.22;4919460;29;20452;-76
2021/05/29 07:00:54;;;;;;;7.03;5.78;;;;;;;20.30;100.00;101079.16;4918569;29;20108;-76
2021/05/29 07:03:40;;;;;;;10.30;5.53;;;;;;;20.76;100.00;101074.00;4904314;29;20082;-75
2021/05/29 07:06:25;;;;;;;7.32;4.97;;;;;;;21.39;100.00;101080.31;4918767;29;20036;-75
2021/05/29 07:09:13;;;;;;;10.30;6.18;;;;;;;21.54;100.00;101068.78;4917581;29;20023;-76
2021/05/29 07:11:59;;;;;;;7.18;5.57;;;;;;;21.41;100.00;101073.06;4918205;29;20099;-76
2021/05/29 07:14:45;;;;;;;7.78;5.65;;;;;;;21.05;100.00;101083.13;4918221;29;20110;-76
2021/05/29 07:17:33;;;;;;;6.43;5.70;;;;;;;21.39;100.00;101083.84;4904682;29;20083;-76
2021/05/29 07:20:18;;;;;;;11.57;6.32;;;;;;;21.12;100.00;101080.03;4918175;29;20024;-76
2021/05/29 07:23:05;;;;;;;9.13;5.93;;;;;;;21.31;100.00;101085.19;4917214;29;20031;-76
2021/05/29 07:25:50;;;;;;;7.93;5.97;;;;;;;22.28;100.00;101066.13;4918304;29;20071;-78
2021/05/29 07:28:36;;;;;;;8.82;5.72;;;;;;;21.80;100.00;101070.84;4918904;29;20438;-76
2021/05/29 07:31:23;;;;;;;8.18;6.03;;;;;;;21.66;100.00;101074.25;4918678;29;20032;-77
2021/05/29 07:34:09;;;;;;;9.20;5.53;;;;;;;22.06;100.00;101073.69;4904259;29;20339;-76
2021/05/29 07:36:55;;;;;;;7.32;5.45;;;;;;;22.35;100.00;101072.81;4917457;29;20040;-76
2021/05/29 07:39:41;;;;;;;9.32;6.15;;;;;;;22.02;100.00;101077.50;4918246;29;20127;-77
2021/05/29 07:42:26;;;;;;;8.90;5.68;;;;;;;21.63;100.00;101077.13;4919398;29;20028;-76
2021/05/29 07:45:14;;;;;;;6.72;5.65;;;;;;;21.91;100.00;101074.56;4921550;29;20377;-76
2021/05/29 07:48:00;;;;;;;8.48;5.60;;;;;;;22.29;100.00;101075.88;4908450;29;20047;-77
2021/05/29 07:50:59;;;;;;;7.53;5.28;;;;;;;22.68;100.00;101089.50;4907875;29;20115;-77
2021/05/29 07:53:45;;;;;;;6.10;5.00;;;;;;;22.31;100.00;101075.78;4921911;29;20028;-77
2021/05/29 07:56:32;;;;;;;9.18;5.90;;;;;;;22.26;100.00;101081.38;4907924;29;20041;-76
2021/05/29 07:59:18;;;;;;;7.03;5.70;;;;;;;22.58;100.00;101083.00;4921328;29;20449;-77
2021/05/29 08:02:04;;;;;;;6.32;5.50;;;;;;;22.93;100.00;101067.47;4920420;29;20032;-77
2021/05/29 08:04:51;;;;;;;7.75;6.15;;;;;;;22.53;100.00;101076.22;4907880;29;20063;-77
2021/05/29 08:07:36;;;;;;;6.53;5.00;;;;;;;22.67;100.00;101079.75;4907929;29;20417;-76
2021/05/29 08:10:22;;;;;;;7.82;5.30;;;;;;;22.70;100.00;101074.22;4920829;29;20035;-77
2021/05/29 08:13:08;;;;;;;6.72;5.07;;;;;;;22.84;100.00;101071.59;4920464;29;20028;-76
2021/05/29 08:15:54;;;;;;;6.68;5.15;;;;;;;23.19;100.00;101077.38;4920303;29;20028;-77
2021/05/29 08:18:40;;;;;;;12.02;5.05;;;;;;;23.35;100.00;101068.28;4907746;29;20020;-77
2021/05/29 08:21:26;;;;;;;7.30;5.03;;;;;;;23.11;100.00;101080.53;4920903;29;20111;-76
2021/05/29 08:24:13;;;;;;;9.88;5.10;;;;;;;22.85;100.00;101072.41;4907379;29;20039;-76
2021/05/29 08:27:00;;;;;;;7.85;4.72;;;;;;;24.06;100.00;101078.78;4920988;29;20060;-76
2021/05/29 08:29:46;;;;;;;5.68;4.78;;;;;;;23.44;100.00;101075.72;4921405;29;20123;-76
2021/05/29 08:32:31;;;;;;;8.63;5.15;;;;;;;23.41;100.00;101075.06;4920844;29;20028;-76
2021/05/29 08:35:17;;;;;;;12.38;4.72;;;;;;;23.34;100.00;101076.41;4921070;29;20028;-76
2021/05/29 08:38:04;;;;;;;6.03;4.45;;;;;;;23.89;100.00;101074.53;4921095;29;20468;-76
2021/05/29 08:40:50;;;;;;;7.93;5.30;;;;;;;23.72;100.00;101073.91;4907409;29;20025;-76
2021/05/29 08:43:37;;;;;;;6.30;4.38;;;;;;;23.06;100.00;101076.41;4906937;29;20115;-77
2021/05/29 08:46:23;;;;;;;5.00;4.50;;;;;;;23.19;100.00;101072.88;4922203;29;20028;-76
2021/05/29 08:49:09;;;;;;;7.88;4.82;;;;;;;23.83;100.00;101058.03;4921158;29;20043;-77
2021/05/29 08:51:57;;;;;;;8.23;6.70;;;;;;;22.86;100.00;101060.78;4921498;29;20437;-75
2021/05/29 08:54:44;;;;;;;6.13;4.75;;;;;;;23.14;100.00;101061.63;4920963;29;20062;-75
2021/05/29 08:57:29;;;;;;;8.85;4.80;;;;;;;22.97;100.00;101063.63;4908079;29;20065;-77
2021/05/29 09:00:19;;;;;;;7.63;5.22;;;;;;;23.49;100.00;101059.38;4906822;29;20024;-76
2021/05/29 09:03:06;;;;;;;8.30;4.50;;;;;;;23.28;100.00;101058.94;4920140;29;20044;-76
2021/05/29 09:05:53;;;;;;;4.55;3.80;;;;;;;23.74;100.00;101046.09;4906539;29;20034;-76
2021/05/29 09:08:51;;;;;;;6.90;4.13;;;;;;;23.44;100.00;101048.97;4919134;29;20032;-77
2021/05/29 09:11:47;;;;;;;8.77;4.30;;;;;;;23.98;100.00;101044.50;4919870;29;20059;-76
2021/05/29 09:14:26;;;;;;;8.25;4.20;;;;;;;23.77;100.00;101051.25;4960973;23;20166;-77
2021/05/29 09:17:22;;;;;;;4.43;4.03;;;;;;;23.70;100.00;101043.75;4919742;29;20036;-77
2021/05/29 09:20:14;;;;;;;8.30;5.50;;;;;;;24.10;100.00;101045.50;4919766;29;20020;-77
2021/05/29 09:23:03;;;;;;;7.90;4.05;;;;;;;24.33;100.00;101045.63;4920743;29;20044;-78
2021/05/29 09:25:56;;;;;;;7.25;4.10;;;;;;;23.33;100.00;101042.59;4907129;29;20028;-77
2021/05/29 09:28:43;;;;;;;7.03;3.90;;;;;;;23.83;100.00;101033.94;4919851;29;20046;-77
2021/05/29 09:31:29;;;;;;;8.35;7.53;;;;;;;23.83;100.00;101036.63;4920484;29;20032;-77
2021/05/29 09:34:31;;;;;;;10.43;6.10;;;;;;;23.76;100.00;101028.13;4928474;29;20021;-76
2021/05/29 09:37:20;;;;;;;6.55;3.75;;;;;;;24.29;100.00;101028.06;4929927;29;20488;-76
2021/05/29 09:40:09;;;;;;;4.55;3.95;;;;;;;24.55;100.00;101039.66;4931255;29;20043;-76
2021/05/29 09:43:04;;;;;;;4.45;3.95;;;;;;;24.39;100.00;101033.63;4927511;29;20028;-76
2021/05/29 09:46:04;;;;;;;5.72;3.70;;;;;;;24.53;100.00;101030.84;4922306;29;20031;-77
2021/05/29 09:48:54;;;;;;;6.10;3.67;;;;;;;24.58;100.00;101031.38;4924075;29;20024;-76
2021/05/29 09:51:40;;;;;;;19.88;11.88;;;;;;;25.04;100.00;101027.19;4923653;29;20426;-77
2021/05/29 09:54:25;;;;;;;10.15;8.52;;;;;;;24.37;100.00;101024.84;4921530;29;20360;-77
2021/05/29 09:57:11;;;;;;;7.65;4.32;;;;;;;24.16;100.00;101021.84;4919911;29;20122;-77
2021/05/29 09:59:58;;;;;;;6.88;3.42;;;;;;;24.19;100.00;101029.63;4919255;29;20020;-78
2021/05/29 10:03:01;;;;;;;6.75;3.95;;;;;;;24.03;100.00;101023.59;4906397;29;20090;-75
2021/05/29 10:05:48;;;;;;;7.07;4.97;;;;;;;23.87;100.00;101024.75;4905439;29;20423;-76
2021/05/29 10:08:34;;;;;;;6.93;4.10;;;;;;;24.10;100.00;101022.25;4919232;29;20445;-75
2021/05/29 10:11:20;;;;;;;7.45;3.72;;;;;;;24.17;100.00;101023.53;4920423;29;20095;-75
2021/05/29 10:14:06;;;;;;;4.20;3.28;;;;;;;23.76;100.00;101024.59;4917813;29;20087;-76
2021/05/29 10:16:52;;;;;;;5.90;3.80;;;;;;;24.24;100.00;101021.31;4905931;29;20122;-76
2021/05/29 10:19:40;;;;;;;6.07;3.50;;;;;;;24.41;100.00;101026.34;4919251;29;20106;-76
2021/05/29 10:22:29;;;;;;;5.68;3.28;;;;;;;24.38;100.00;101023.88;4919348;29;20119;-76
2021/05/29 10:25:18;;;;;;;6.00;3.20;;;;;;;24.38;100.00;101027.41;4919279;29;20032;-76
2021/05/29 10:28:06;;;;;;;6.03;3.50;;;;;;;25.11;100.00;101020.41;4919274;29;20459;-76
2021/05/29 10:30:52;;;;;;;7.13;3.28;;;;;;;24.66;100.00;101027.22;4905559;29;20036;-76
2021/05/29 10:33:40;;;;;;;4.38;3.40;;;;;;;24.79;100.00;101024.56;4918258;29;20028;-78
2021/05/29 10:36:40;;;;;;;4.72;3.63;;;;;;;24.52;100.00;101019.28;4919037;29;20323;-76
2021/05/29 10:39:31;;;;;;;4.13;3.10;;;;;;;24.87;100.00;101024.84;4919133;29;20464;-76
2021/05/29 10:42:30;;;;;;;3.28;2.97;;;;;;;25.12;100.00;101020.28;4918116;29;20083;-77
2021/05/29 10:45:24;;;;;;;5.88;3.10;;;;;;;24.97;100.00;101026.78;4918917;29;20497;-76
2021/05/29 10:48:14;;;;;;;5.07;3.35;;;;;;;25.08;100.00;101029.50;4904964;29;20036;-77
2021/05/29 10:51:11;;;;;;;5.55;3.72;;;;;;;25.07;100.00;101032.34;4918105;29;20040;-77
2021/05/29 10:54:07;;;;;;;4.10;3.22;;;;;;;25.33;100.00;101024.13;4918595;29;20050;-76
2021/05/29 10:56:56;;;;;;;4.28;3.38;;;;;;;25.08;100.00;101018.78;4904545;29;20181;-75
2021/05/29 10:59:42;;;;;;;5.15;3.60;;;;;;;25.08;100.00;101017.94;4918726;29;20024;-76
2021/05/29 11:02:28;;;;;;;6.22;3.33;;;;;;;25.06;100.00;101018.06;4918396;29;20043;-76
2021/05/29 11:05:30;;;;;;;5.30;3.22;;;;;;;25.45;100.00;101014.31;4905084;29;20103;-77
2021/05/29 11:08:48;;;;;;;6.47;3.10;;;;;;;25.31;100.00;101011.81;4918215;29;20028;-76
2021/05/29 11:11:55;;;;;;;3.83;3.15;;;;;;;25.19;100.00;101004.63;4918995;29;20028;-76
2021/05/29 11:14:49;;;;;;;3.85;3.00;;;;;;;25.25;100.00;101005.03;4917134;29;20056;-75
2021/05/29 11:17:35;;;;;;;5.80;3.08;;;;;;;25.08;100.00;101007.22;4904550;29;20064;-75
2021/05/29 11:20:22;;;;;;;3.92;3.15;;;;;;;25.08;100.00;101002.69;4905504;29;20035;-76
2021/05/29 11:23:07;;;;;;;3.92;3.10;;;;;;;25.62;100.00;100997.78;4919057;29;20043;-76
2021/05/29 11:25:53;;;;;;;4.45;2.72;;;;;;;25.50;100.00;101004.09;4918421;29;20039;-77
2021/05/29 11:28:40;;;;;;;4.82;2.20;;;;;;;25.51;100.00;101000.44;4918571;29;20039;-76
2021/05/29 11:31:27;;;;;;;3.58;2.63;;;;;;;25.30;100.00;100996.66;4904318;29;20036;-76
2021/05/29 11:34:12;;;;;;;7.50;2.83;;;;;;;25.43;100.00;100997.47;4918012;29;20031;-76
2021/05/29 11:37:00;;;;;;;3.95;2.45;;;;;;;26.12;100.00;100982.25;4917077;29;20058;-76
2021/05/29 11:39:55;;;;;;;5.15;2.55;;;;;;;26.44;100.00;100977.06;4918243;29;20028;-76
2021/05/29 11:42:51;;;;;;;6.03;2.65;;;;;;;25.77;100.00;100988.59;4918574;29;20032;-77
2021/05/29 11:45:37;;;;;;;4.40;2.67;;;;;;;25.99;100.00;100978.81;4904314;29;20092;-76
2021/05/29 11:48:28;;;;;;;4.88;2.58;;;;;;;26.05;100.00;100977.50;4917906;29;20115;-76
2021/05/29 11:51:18;;;;;;;4.03;2.47;;;;;;;26.15;100.00;100982.03;4903988;29;20036;-76
2021/05/29 11:54:20;;;;;;;3.90;2.40;;;;;;;26.24;100.00;100986.69;4917879;29;20430;-76
2021/05/29 11:57:06;;;;;;;4.43;2.90;;;;;;;26.15;100.00;100979.34;4918261;29;20031;-78
2021/05/29 12:00:05;;;;;;;7.15;2.60;;;;;;;26.46;100.00;100981.34;4919020;29;20024;-77
2021/05/29 12:02:52;;;;;;;4.85;2.20;;;;;;;26.48;98.74;100974.00;4917708;29;20028;-77
2021/05/29 12:05:38;;;;;;;4.20;2.05;;;;;;;25.33;100.00;100970.47;4904728;29;20091;-77
2021/05/29 12:08:24;;;;;;;2.75;1.98;;;;;;;25.03;100.00;100971.84;4917841;29;20529;-77
2021/05/29 12:11:09;;;;;;;5.25;1.90;;;;;;;25.70;100.00;100973.91;4917213;29;20028;-76
2021/05/29 12:14:08;;;;;;;3.33;2.13;;;;;;;25.73;100.00;100974.56;4917531;29;20134;-76
2021/05/29 12:16:56;;;;;;;3.60;2.20;;;;;;;26.35;100.00;100967.91;4904438;29;20028;-77
2021/05/29 12:19:52;;;;;;;3.17;2.30;;;;;;;26.41;100.00;100969.25;4917164;29;20111;-78
2021/05/29 12:22:38;;;;;;;4.43;2.67;;;;;;;25.86;100.00;100961.91;4918065;29;20032;-76
2021/05/29 12:25:29;;;;;;;2.15;1.95;;;;;;;26.02;100.00;100966.97;4917977;29;20031;-78
2021/05/29 12:28:15;;;;;;;2.08;1.88;;;;;;;25.93;100.00;100968.53;4918780;29;20028;-77
2021/05/29 12:31:01;;;;;;;2.78;2.47;;;;;;;26.45;100.00;100973.41;4920276;29;20377;-76
2021/05/29 12:33:46;;;;;;;5.30;2.45;;;;;;;26.31;100.00;100968.25;4920139;29;20118;-77
2021/05/29 12:36:33;;;;;;;6.28;2.13;;;;;;;26.87;96.37;100965.47;4921689;29;20040;-77
2021/05/29 12:39:19;;;;;;;4.32;2.03;;;;;;;27.04;93.85;100956.03;4921018;29;20051;-76
2021/05/29 12:42:05;;;;;;;2.10;1.45;;;;;;;26.83;89.03;100969.41;4920154;29;20028;-77
2021/05/29 12:44:58;;;;;;;3.05;1.70;;;;;;;26.88;90.46;100956.44;4921348;29;20031;-77
2021/05/29 12:47:58;;;;;;;5.30;1.70;;;;;;;26.73;91.50;100951.44;4921191;29;20032;-76
2021/05/29 12:53:51;;;;;;;4.13;1.90;;;;;;;27.24;90.46;100948.06;4921261;29;20028;-77
2021/05/29 12:56:49;;;;;;;4.80;2.05;;;;;;;26.36;96.25;100947.28;4906716;29;20039;-77
2021/05/29 12:59:35;;;;;;;2.10;1.90;;;;;;;27.17;95.90;100952.22;4907200;29;20059;-76